createdAt,value
2022-08-22T00:00:02.923Z,16.14
2022-08-22T00:00:13.504Z,16.14
2022-08-22T00:00:22.902Z,16.16
2022-08-22T00:00:32.937Z,16.14
2022-08-22T00:00:42.929Z,16.14
2022-08-22T00:00:52.927Z,16.14
2022-08-22T00:01:02.924Z,16.14
2022-08-22T00:01:12.886Z,16.13
2022-08-22T00:01:23.832Z,16.13
2022-08-22T00:01:32.833Z,16.13
2022-08-22T00:01:42.843Z,16.13
2022-08-22T00:01:53.059Z,16.11
2022-08-22T00:02:02.929Z,16.13
2022-08-22T00:02:12.981Z,16.13
2022-08-22T00:02:22.949Z,16.11
2022-08-22T00:02:32.992Z,16.10
2022-08-22T00:02:41.708Z,21.99
2022-08-22T00:02:42.335Z,20.61
2022-08-22T00:02:42.865Z,19.95
2022-08-22T00:02:45.056Z,21.24
2022-08-22T00:02:46.232Z,19.55
2022-08-22T00:02:46.314Z,19.39
2022-08-22T00:02:47.240Z,17.27
2022-08-22T00:02:48.504Z,19.95
2022-08-22T00:02:48.934Z,19.62
2022-08-22T00:02:54.352Z,18.39
2022-08-22T00:02:54.636Z,17.66
2022-08-22T00:02:55.898Z,19.35
2022-08-22T00:02:55.978Z,18.71
2022-08-22T00:02:58.681Z,17.25
2022-08-22T00:02:58.875Z,16.92
2022-08-22T00:02:59.527Z,18.31
2022-08-22T00:02:59.808Z,20.05
2022-08-22T00:02:59.809Z,17.51
2022-08-22T00:03:00.023Z,19.89
2022-08-22T00:03:00.023Z,21.90
2022-08-22T00:03:00.350Z,18.36
2022-08-22T00:03:00.571Z,22.02
2022-08-22T00:03:02.136Z,20.51
2022-08-22T00:03:02.382Z,19.39
2022-08-22T00:03:06.480Z,16.91
2022-08-22T00:03:07.041Z,16.22
2022-08-22T00:03:07.587Z,16.34
2022-08-22T00:03:07.844Z,18.47
2022-08-22T00:03:07.846Z,17.18
2022-08-22T00:03:08.058Z,17.18
2022-08-22T00:03:08.536Z,16.47
2022-08-22T00:03:08.536Z,16.55
2022-08-22T00:03:08.735Z,16.98
2022-08-22T00:03:09.130Z,18.31
2022-08-22T00:03:10.288Z,16.17
2022-08-22T00:03:11.075Z,16.62
2022-08-22T00:03:11.474Z,16.26
2022-08-22T00:03:12.643Z,18.39
2022-08-22T00:03:15.001Z,16.10
2022-08-22T00:03:15.428Z,16.11
2022-08-22T00:03:15.795Z,16.23
2022-08-22T00:03:22.954Z,16.10
2022-08-22T00:03:32.860Z,16.10
2022-08-22T00:03:42.871Z,16.10
2022-08-22T00:03:52.857Z,16.10
2022-08-22T00:04:02.887Z,16.11
2022-08-22T00:04:12.940Z,16.10
2022-08-22T00:04:22.848Z,16.10
2022-08-22T00:04:34.380Z,16.11
2022-08-22T00:04:42.929Z,16.10
2022-08-22T00:04:52.949Z,16.10
2022-08-22T00:05:02.923Z,16.08
2022-08-22T00:05:12.914Z,16.08
2022-08-22T00:05:22.941Z,16.10
2022-08-22T00:05:32.839Z,16.10
2022-08-22T00:05:42.837Z,16.10
2022-08-22T00:05:52.852Z,16.08
2022-08-22T00:06:02.875Z,16.07
2022-08-22T00:06:12.858Z,16.07
2022-08-22T00:06:22.885Z,16.10
2022-08-22T00:06:32.840Z,16.08
2022-08-22T00:06:42.910Z,16.08
2022-08-22T00:06:52.946Z,16.08
2022-08-22T00:07:02.843Z,16.07
2022-08-22T00:07:12.951Z,16.08
2022-08-22T00:07:22.851Z,16.08
2022-08-22T00:07:32.953Z,16.08
2022-08-22T00:07:42.878Z,16.08
2022-08-22T00:07:53.029Z,16.07
2022-08-22T00:08:02.929Z,16.07
2022-08-22T00:08:12.889Z,16.06
2022-08-22T00:08:22.956Z,16.07
2022-08-22T00:08:32.883Z,16.06
2022-08-22T00:08:42.898Z,16.07
2022-08-22T00:08:52.884Z,16.07
2022-08-22T00:09:02.974Z,16.06
2022-08-22T00:09:12.849Z,16.07
2022-08-22T00:09:22.870Z,16.07
2022-08-22T00:09:32.925Z,16.06
2022-08-22T00:09:42.955Z,16.06
2022-08-22T00:09:52.945Z,16.06
2022-08-22T00:10:02.962Z,16.06
2022-08-22T00:10:12.859Z,16.04
2022-08-22T00:10:25.570Z,16.04
2022-08-22T00:10:32.945Z,16.04
2022-08-22T00:10:42.955Z,16.04
2022-08-22T00:10:52.935Z,16.04
2022-08-22T00:11:02.953Z,16.04
2022-08-22T00:11:12.839Z,16.04
2022-08-22T00:11:22.852Z,16.06
2022-08-22T00:11:32.898Z,16.06
2022-08-22T00:11:42.967Z,16.06
2022-08-22T00:11:52.949Z,16.04
2022-08-22T00:12:02.943Z,16.04
2022-08-22T00:12:12.967Z,16.04
2022-08-22T00:12:22.873Z,16.04
2022-08-22T00:12:32.933Z,16.04
2022-08-22T00:12:42.840Z,16.06
2022-08-22T00:12:52.866Z,16.03
2022-08-22T00:13:02.969Z,16.04
2022-08-22T00:13:12.879Z,16.03
2022-08-22T00:13:22.952Z,16.03
2022-08-22T00:13:32.964Z,16.03
2022-08-22T00:13:42.841Z,16.01
2022-08-22T00:14:01.246Z,16.01
2022-08-22T00:14:02.856Z,16.01
2022-08-22T00:14:12.949Z,16.01
2022-08-22T00:14:22.852Z,16.01
2022-08-22T00:14:32.833Z,16.01
2022-08-22T00:14:42.918Z,16.01
2022-08-22T00:14:52.970Z,15.98
2022-08-22T00:15:02.924Z,16.01
2022-08-22T00:15:31.502Z,16.03
2022-08-22T00:15:31.688Z,16.01
2022-08-22T00:15:42.876Z,16.01
2022-08-22T00:15:44.227Z,15.99
2022-08-22T00:15:52.857Z,16.01
2022-08-22T00:16:02.860Z,15.99
2022-08-22T00:16:12.968Z,15.99
2022-08-22T00:16:22.897Z,15.98
2022-08-22T00:16:32.902Z,15.99
2022-08-22T00:16:42.910Z,15.99
2022-08-22T00:16:53.425Z,15.99
2022-08-22T00:17:02.940Z,15.99
2022-08-22T00:17:12.888Z,15.99
2022-08-22T00:17:22.893Z,15.98
2022-08-22T00:17:32.886Z,15.98
2022-08-22T00:17:42.831Z,15.98
2022-08-22T00:17:52.893Z,15.99
2022-08-22T00:18:02.879Z,15.98
2022-08-22T00:18:12.916Z,15.98
2022-08-22T00:18:22.917Z,15.96
2022-08-22T00:18:32.907Z,15.98
2022-08-22T00:18:42.920Z,15.96
2022-08-22T00:18:52.953Z,15.99
2022-08-22T00:19:02.915Z,15.96
2022-08-22T00:19:12.960Z,15.96
2022-08-22T00:19:22.954Z,15.98
2022-08-22T00:19:32.936Z,15.98
2022-08-22T00:19:42.949Z,15.96
2022-08-22T00:19:52.909Z,15.96
2022-08-22T00:20:02.941Z,15.96
2022-08-22T00:20:12.942Z,15.95
2022-08-22T00:20:26.409Z,15.96
2022-08-22T00:20:32.852Z,15.95
2022-08-22T00:20:42.847Z,15.95
2022-08-22T00:20:52.908Z,15.95
2022-08-22T00:21:02.870Z,15.96
2022-08-22T00:21:12.855Z,15.96
2022-08-22T00:21:22.849Z,15.95
2022-08-22T00:21:32.857Z,15.96
2022-08-22T00:21:42.858Z,15.95
2022-08-22T00:21:52.858Z,15.98
2022-08-22T00:22:02.935Z,15.96
2022-08-22T00:22:12.887Z,15.98
2022-08-22T00:22:22.891Z,15.95
2022-08-22T00:22:32.840Z,15.96
2022-08-22T00:22:42.887Z,15.93
2022-08-22T00:22:52.902Z,15.95
2022-08-22T00:23:02.913Z,15.93
2022-08-22T00:23:12.891Z,15.93
2022-08-22T00:23:22.846Z,15.93
2022-08-22T00:23:32.880Z,15.93
2022-08-22T00:23:42.878Z,15.92
2022-08-22T00:23:52.899Z,15.93
2022-08-22T00:24:02.889Z,15.93
2022-08-22T00:24:12.940Z,15.92
2022-08-22T00:24:22.856Z,15.92
2022-08-22T00:24:32.883Z,15.92
2022-08-22T00:24:42.890Z,15.92
2022-08-22T00:24:52.866Z,15.92
2022-08-22T00:25:02.904Z,15.91
2022-08-22T00:25:25.709Z,15.91
2022-08-22T00:25:25.727Z,15.91
2022-08-22T00:25:32.948Z,15.89
2022-08-22T00:25:42.963Z,15.91
2022-08-22T00:25:52.856Z,15.89
2022-08-22T00:26:02.929Z,15.89
2022-08-22T00:26:12.966Z,15.89
2022-08-22T00:26:22.877Z,15.88
2022-08-22T00:26:32.847Z,15.88
2022-08-22T00:26:45.424Z,15.89
2022-08-22T00:26:52.839Z,15.88
2022-08-22T00:27:02.882Z,15.86
2022-08-22T00:27:12.909Z,15.88
2022-08-22T00:27:22.835Z,15.86
2022-08-22T00:27:32.853Z,15.88
2022-08-22T00:27:44.923Z,15.88
2022-08-22T00:27:52.888Z,15.86
2022-08-22T00:28:02.887Z,15.86
2022-08-22T00:28:12.904Z,15.85
2022-08-22T00:28:22.940Z,15.85
2022-08-22T00:28:32.852Z,15.86
2022-08-22T00:28:42.943Z,15.81
2022-08-22T00:28:52.882Z,15.84
2022-08-22T00:29:02.848Z,15.85
2022-08-22T00:29:12.858Z,15.84
2022-08-22T00:29:22.965Z,15.81
2022-08-22T00:29:32.888Z,15.81
2022-08-22T00:29:43.554Z,15.81
2022-08-22T00:29:52.919Z,15.81
2022-08-22T00:30:02.838Z,15.81
2022-08-22T00:30:12.952Z,15.80
2022-08-22T00:30:22.852Z,15.80
2022-08-22T00:30:32.946Z,15.80
2022-08-22T00:30:42.962Z,15.78
2022-08-22T00:30:52.877Z,15.78
2022-08-22T00:31:02.907Z,15.78
2022-08-22T00:31:12.955Z,15.78
2022-08-22T00:31:22.989Z,15.78
2022-08-22T00:31:32.892Z,15.78
2022-08-22T00:31:42.904Z,15.80
2022-08-22T00:31:52.965Z,15.78
2022-08-22T00:32:02.945Z,15.78
2022-08-22T00:32:12.875Z,15.80
2022-08-22T00:32:22.887Z,15.78
2022-08-22T00:32:32.838Z,15.78
2022-08-22T00:32:42.878Z,15.78
2022-08-22T00:32:52.895Z,15.78
2022-08-22T00:33:02.898Z,15.80
2022-08-22T00:33:12.903Z,15.78
2022-08-22T00:33:22.910Z,15.80
2022-08-22T00:33:32.958Z,15.78
2022-08-22T00:33:42.859Z,15.78
2022-08-22T00:33:52.893Z,15.77
2022-08-22T00:34:02.858Z,15.78
2022-08-22T00:34:12.864Z,15.77
2022-08-22T00:34:22.867Z,15.77
2022-08-22T00:34:32.861Z,15.76
2022-08-22T00:34:42.868Z,15.77
2022-08-22T00:34:52.876Z,15.77
2022-08-22T00:35:02.856Z,15.76
2022-08-22T00:35:12.864Z,15.76
2022-08-22T00:35:22.969Z,15.76
2022-08-22T00:35:32.877Z,15.74
2022-08-22T00:35:45.165Z,15.76
2022-08-22T00:35:52.855Z,15.74
2022-08-22T00:36:02.898Z,15.73
2022-08-22T00:36:12.880Z,15.74
2022-08-22T00:36:22.895Z,15.74
2022-08-22T00:36:32.921Z,15.74
2022-08-22T00:36:42.943Z,15.74
2022-08-22T00:36:52.859Z,15.73
2022-08-22T00:37:02.883Z,15.74
2022-08-22T00:37:12.861Z,15.73
2022-08-22T00:37:24.289Z,15.74
2022-08-22T00:37:32.960Z,15.73
2022-08-22T00:37:42.942Z,15.74
2022-08-22T00:37:52.881Z,15.74
2022-08-22T00:38:02.888Z,15.73
2022-08-22T00:38:12.901Z,15.73
2022-08-22T00:38:22.866Z,15.71
2022-08-22T00:38:32.892Z,15.71
2022-08-22T00:38:42.955Z,15.71
2022-08-22T00:38:52.946Z,15.71
2022-08-22T00:39:02.964Z,15.71
2022-08-22T00:39:12.840Z,15.73
2022-08-22T00:39:22.940Z,15.71
2022-08-22T00:39:32.841Z,15.70
2022-08-22T00:39:42.893Z,15.70
2022-08-22T00:39:52.943Z,15.70
2022-08-22T00:40:03.347Z,15.70
2022-08-22T00:40:13.043Z,15.70
2022-08-22T00:40:23.027Z,15.71
2022-08-22T00:40:32.849Z,15.70
2022-08-22T00:40:42.849Z,15.68
2022-08-22T00:40:52.854Z,15.68
2022-08-22T00:41:02.884Z,15.68
2022-08-22T00:41:12.930Z,15.68
2022-08-22T00:41:22.960Z,15.68
2022-08-22T00:41:32.967Z,15.67
2022-08-22T00:41:42.839Z,15.67
2022-08-22T00:41:52.836Z,15.67
2022-08-22T00:42:02.840Z,15.67
2022-08-22T00:42:12.837Z,15.68
2022-08-22T00:42:29.498Z,15.68
2022-08-22T00:42:32.966Z,15.66
2022-08-22T00:42:42.866Z,15.67
2022-08-22T00:42:52.884Z,15.67
2022-08-22T00:43:02.927Z,15.66
2022-08-22T00:43:12.921Z,15.64
2022-08-22T00:43:22.941Z,15.66
2022-08-22T00:43:32.914Z,15.66
2022-08-22T00:43:42.949Z,15.64
2022-08-22T00:43:52.860Z,15.66
2022-08-22T00:44:02.926Z,15.64
2022-08-22T00:44:12.868Z,15.64
2022-08-22T00:44:22.866Z,15.64
2022-08-22T00:44:32.916Z,15.64
2022-08-22T00:44:42.926Z,15.64
2022-08-22T00:44:52.956Z,15.62
2022-08-22T00:45:02.928Z,15.62
2022-08-22T00:45:12.963Z,15.64
2022-08-22T00:45:22.840Z,15.62
2022-08-22T00:45:32.940Z,15.62
2022-08-22T00:45:42.922Z,15.60
2022-08-22T00:45:52.904Z,15.62
2022-08-22T00:46:02.936Z,15.60
2022-08-22T00:46:12.835Z,15.60
2022-08-22T00:46:22.942Z,15.60
2022-08-22T00:46:32.887Z,15.59
2022-08-22T00:46:42.885Z,15.59
2022-08-22T00:46:52.953Z,15.59
2022-08-22T00:47:02.950Z,15.59
2022-08-22T00:47:12.901Z,15.58
2022-08-22T00:47:22.857Z,15.59
2022-08-22T00:47:32.841Z,15.59
2022-08-22T00:47:42.965Z,15.59
2022-08-22T00:47:52.954Z,15.59
2022-08-22T00:48:02.868Z,15.59
2022-08-22T00:48:14.552Z,15.58
2022-08-22T00:48:22.967Z,15.58
2022-08-22T00:48:32.939Z,15.58
2022-08-22T00:48:42.840Z,15.58
2022-08-22T00:48:52.853Z,15.58
2022-08-22T00:49:02.923Z,15.59
2022-08-22T00:49:12.962Z,15.58
2022-08-22T00:49:22.889Z,15.56
2022-08-22T00:49:32.926Z,15.58
2022-08-22T00:49:42.959Z,15.56
2022-08-22T00:49:52.916Z,15.56
2022-08-22T00:50:02.930Z,15.55
2022-08-22T00:50:12.848Z,15.56
2022-08-22T00:50:22.837Z,15.55
2022-08-22T00:50:32.885Z,15.55
2022-08-22T00:50:42.930Z,15.56
2022-08-22T00:50:52.941Z,15.56
2022-08-22T00:51:02.874Z,15.55
2022-08-22T00:51:12.879Z,15.56
2022-08-22T00:51:22.840Z,15.55
2022-08-22T00:51:32.870Z,15.53
2022-08-22T00:51:42.890Z,15.53
2022-08-22T00:51:52.966Z,15.55
2022-08-22T00:52:02.958Z,15.55
2022-08-22T00:52:12.910Z,15.55
2022-08-22T00:52:22.891Z,15.55
2022-08-22T00:52:32.883Z,15.53
2022-08-22T00:52:42.911Z,15.52
2022-08-22T00:52:52.946Z,15.52
2022-08-22T00:53:02.895Z,15.53
2022-08-22T00:53:12.880Z,15.53
2022-08-22T00:53:22.931Z,15.53
2022-08-22T00:53:32.845Z,15.53
2022-08-22T00:53:42.946Z,15.53
2022-08-22T00:53:52.946Z,15.53
2022-08-22T00:54:02.847Z,15.53
2022-08-22T00:54:17.360Z,15.53
2022-08-22T00:54:22.879Z,15.53
2022-08-22T00:54:32.900Z,15.53
2022-08-22T00:54:42.853Z,15.53
2022-08-22T00:54:52.959Z,15.53
2022-08-22T00:55:02.884Z,15.55
2022-08-22T00:55:12.904Z,15.53
2022-08-22T00:55:22.923Z,15.53
2022-08-22T00:55:35.083Z,15.53
2022-08-22T00:55:42.909Z,15.53
2022-08-22T00:55:52.933Z,15.53
2022-08-22T00:56:02.836Z,15.53
2022-08-22T00:56:12.929Z,15.53
2022-08-22T00:56:22.912Z,15.53
2022-08-22T00:56:32.948Z,15.53
2022-08-22T00:56:44.988Z,15.53
2022-08-22T00:56:52.950Z,15.56
2022-08-22T00:57:02.864Z,15.53
2022-08-22T00:57:12.934Z,15.55
2022-08-22T00:57:22.863Z,15.56
2022-08-22T00:57:32.878Z,15.53
2022-08-22T00:57:42.846Z,15.53
2022-08-22T00:57:52.962Z,15.56
2022-08-22T00:58:02.861Z,15.53
2022-08-22T00:58:12.889Z,15.55
2022-08-22T00:58:22.855Z,15.53
2022-08-22T00:58:32.884Z,15.55
2022-08-22T00:58:42.944Z,15.55
2022-08-22T00:58:52.883Z,15.56
2022-08-22T00:59:12.010Z,15.55
2022-08-22T00:59:23.718Z,15.55
2022-08-22T00:59:24.184Z,15.53
2022-08-22T00:59:32.868Z,15.53
2022-08-22T00:59:42.865Z,15.53
2022-08-22T00:59:52.916Z,15.53
2022-08-22T01:00:02.837Z,15.55
2022-08-22T01:00:12.874Z,15.53
2022-08-22T01:00:22.882Z,15.55
2022-08-22T01:00:36.419Z,15.55
2022-08-22T01:00:42.967Z,15.52
2022-08-22T01:00:52.933Z,15.55
2022-08-22T01:01:03.130Z,15.55
2022-08-22T01:01:12.919Z,15.55
2022-08-22T01:01:22.972Z,15.53
2022-08-22T01:01:33.029Z,15.55
2022-08-22T01:01:42.926Z,15.56
2022-08-22T01:01:52.906Z,15.55
2022-08-22T01:02:02.947Z,15.55
2022-08-22T01:02:12.947Z,15.55
2022-08-22T01:02:22.960Z,15.55
2022-08-22T01:02:32.912Z,15.55
2022-08-22T01:02:42.842Z,15.55
2022-08-22T01:02:53.065Z,15.55
2022-08-22T01:03:02.918Z,15.53
2022-08-22T01:03:12.898Z,15.53
2022-08-22T01:03:22.883Z,15.55
2022-08-22T01:03:32.867Z,15.52
2022-08-22T01:03:42.859Z,15.53
2022-08-22T01:03:52.942Z,15.52
2022-08-22T01:04:02.958Z,15.52
2022-08-22T01:04:12.940Z,15.52
2022-08-22T01:04:22.953Z,15.52
2022-08-22T01:04:32.918Z,15.53
2022-08-22T01:04:42.841Z,15.51
2022-08-22T01:04:52.844Z,15.53
2022-08-22T01:05:02.894Z,15.53
2022-08-22T01:05:12.944Z,15.53
2022-08-22T01:05:22.867Z,15.53
2022-08-22T01:05:32.849Z,15.53
2022-08-22T01:05:42.896Z,15.53
2022-08-22T01:05:52.950Z,15.53
2022-08-22T01:06:02.949Z,15.53
2022-08-22T01:06:12.968Z,15.53
2022-08-22T01:06:22.861Z,15.52
2022-08-22T01:06:32.938Z,15.53
2022-08-22T01:06:42.939Z,15.53
2022-08-22T01:06:52.836Z,15.53
2022-08-22T01:07:02.870Z,15.52
2022-08-22T01:07:12.899Z,15.53
2022-08-22T01:07:22.953Z,15.53
2022-08-22T01:07:38.390Z,15.53
2022-08-22T01:07:42.869Z,15.53
2022-08-22T01:07:52.975Z,15.52
2022-08-22T01:08:02.889Z,15.52
2022-08-22T01:08:12.915Z,15.52
2022-08-22T01:08:22.896Z,15.52
2022-08-22T01:08:32.932Z,15.53
2022-08-22T01:08:42.939Z,15.53
2022-08-22T01:08:52.952Z,15.52
2022-08-22T01:09:02.947Z,15.53
2022-08-22T01:09:12.962Z,15.51
2022-08-22T01:09:22.951Z,15.52
2022-08-22T01:09:32.960Z,15.51
2022-08-22T01:09:42.868Z,15.52
2022-08-22T01:09:52.906Z,15.51
2022-08-22T01:10:02.949Z,15.51
2022-08-22T01:10:12.835Z,15.52
2022-08-22T01:10:22.922Z,15.51
2022-08-22T01:10:32.838Z,15.51
2022-08-22T01:10:42.942Z,15.51
2022-08-22T01:10:52.929Z,15.51
2022-08-22T01:11:02.932Z,15.51
2022-08-22T01:11:12.852Z,15.49
2022-08-22T01:11:22.869Z,15.51
2022-08-22T01:11:32.926Z,15.49
2022-08-22T01:11:42.910Z,15.51
2022-08-22T01:11:52.917Z,15.51
2022-08-22T01:12:02.909Z,15.51
2022-08-22T01:12:12.920Z,15.51
2022-08-22T01:12:22.920Z,15.51
2022-08-22T01:12:32.878Z,15.51
2022-08-22T01:12:42.927Z,15.49
2022-08-22T01:12:52.934Z,15.49
2022-08-22T01:13:02.947Z,15.49
2022-08-22T01:13:12.937Z,15.51
2022-08-22T01:13:22.959Z,15.49
2022-08-22T01:13:32.924Z,15.49
2022-08-22T01:13:42.932Z,15.49
2022-08-22T01:13:52.905Z,15.49
2022-08-22T01:14:02.848Z,15.49
2022-08-22T01:14:12.961Z,15.49
2022-08-22T01:14:34.177Z,15.48
2022-08-22T01:14:34.682Z,15.48
2022-08-22T01:14:42.947Z,15.48
2022-08-22T01:14:52.946Z,15.46
2022-08-22T01:15:02.959Z,15.46
2022-08-22T01:15:12.946Z,15.48
2022-08-22T01:15:22.969Z,15.46
2022-08-22T01:15:32.958Z,15.46
2022-08-22T01:15:42.862Z,15.46
2022-08-22T01:15:52.956Z,15.44
2022-08-22T01:16:02.857Z,15.44
2022-08-22T01:16:12.908Z,15.44
2022-08-22T01:16:22.944Z,15.46
2022-08-22T01:16:32.906Z,15.44
2022-08-22T01:16:42.903Z,15.44
2022-08-22T01:16:52.941Z,15.43
2022-08-22T01:17:02.951Z,15.44
2022-08-22T01:17:12.886Z,15.44
2022-08-22T01:17:22.951Z,15.44
2022-08-22T01:17:32.874Z,15.46
2022-08-22T01:17:42.895Z,15.44
2022-08-22T01:17:52.938Z,15.44
2022-08-22T01:18:02.860Z,15.44
2022-08-22T01:18:12.904Z,15.44
2022-08-22T01:18:22.979Z,15.43
2022-08-22T01:18:32.899Z,15.46
2022-08-22T01:18:42.940Z,15.44
2022-08-22T01:18:52.929Z,15.44
2022-08-22T01:19:02.936Z,15.44
2022-08-22T01:19:12.878Z,15.43
2022-08-22T01:19:22.859Z,15.44
2022-08-22T01:19:32.882Z,15.43
2022-08-22T01:19:42.873Z,15.43
2022-08-22T01:19:52.885Z,15.43
2022-08-22T01:20:02.861Z,15.43
2022-08-22T01:20:12.893Z,15.43
2022-08-22T01:20:22.901Z,15.43
2022-08-22T01:20:32.942Z,15.43
2022-08-22T01:20:42.851Z,15.43
2022-08-22T01:20:52.856Z,15.41
2022-08-22T01:21:02.965Z,15.41
2022-08-22T01:21:12.863Z,15.40
2022-08-22T01:21:24.348Z,15.41
2022-08-22T01:21:32.945Z,15.41
2022-08-22T01:21:42.887Z,15.40
2022-08-22T01:21:52.944Z,15.41
2022-08-22T01:22:02.839Z,15.41
2022-08-22T01:22:12.847Z,15.41
2022-08-22T01:22:22.852Z,15.41
2022-08-22T01:22:32.851Z,15.40
2022-08-22T01:22:42.851Z,15.40
2022-08-22T01:22:52.903Z,15.41
2022-08-22T01:23:02.914Z,15.40
2022-08-22T01:23:12.931Z,15.41
2022-08-22T01:23:22.911Z,15.43
2022-08-22T01:23:32.935Z,15.41
2022-08-22T01:23:42.852Z,15.41
2022-08-22T01:23:52.900Z,15.41
2022-08-22T01:24:02.902Z,15.41
2022-08-22T01:24:12.909Z,15.41
2022-08-22T01:24:22.873Z,15.41
2022-08-22T01:24:32.985Z,15.41
2022-08-22T01:24:42.911Z,15.41
2022-08-22T01:24:52.873Z,15.41
2022-08-22T01:25:02.937Z,15.41
2022-08-22T01:25:12.920Z,15.41
2022-08-22T01:25:26.151Z,15.41
2022-08-22T01:25:32.953Z,15.41
2022-08-22T01:25:42.872Z,15.40
2022-08-22T01:25:52.893Z,15.41
2022-08-22T01:26:02.945Z,15.40
2022-08-22T01:26:12.857Z,15.40
2022-08-22T01:26:22.912Z,15.40
2022-08-22T01:26:32.885Z,15.40
2022-08-22T01:26:44.789Z,15.38
2022-08-22T01:26:52.918Z,15.38
2022-08-22T01:27:02.942Z,15.38
2022-08-22T01:27:12.957Z,15.38
2022-08-22T01:27:22.834Z,15.40
2022-08-22T01:27:32.894Z,15.38
2022-08-22T01:27:42.884Z,15.37
2022-08-22T01:27:52.917Z,15.38
2022-08-22T01:28:02.955Z,15.37
2022-08-22T01:28:12.930Z,15.37
2022-08-22T01:28:22.893Z,15.38
2022-08-22T01:28:32.920Z,15.37
2022-08-22T01:28:42.902Z,15.37
2022-08-22T01:28:52.909Z,15.37
2022-08-22T01:29:02.845Z,15.37
2022-08-22T01:29:12.858Z,15.40
2022-08-22T01:29:28.330Z,15.38
2022-08-22T01:29:32.904Z,15.34
2022-08-22T01:29:42.919Z,15.38
2022-08-22T01:29:52.889Z,15.37
2022-08-22T01:30:02.872Z,15.37
2022-08-22T01:30:12.873Z,15.37
2022-08-22T01:30:22.888Z,15.35
2022-08-22T01:30:32.847Z,15.37
2022-08-22T01:30:42.892Z,15.35
2022-08-22T01:30:52.894Z,15.35
2022-08-22T01:31:02.881Z,15.35
2022-08-22T01:31:12.920Z,15.34
2022-08-22T01:31:22.933Z,15.34
2022-08-22T01:31:32.928Z,15.35
2022-08-22T01:31:42.967Z,15.35
2022-08-22T01:31:52.871Z,15.34
2022-08-22T01:32:02.942Z,15.34
2022-08-22T01:32:12.840Z,15.34
2022-08-22T01:32:22.907Z,15.33
2022-08-22T01:32:32.843Z,15.33
2022-08-22T01:32:42.850Z,15.31
2022-08-22T01:32:53.934Z,15.31
2022-08-22T01:33:02.878Z,15.31
2022-08-22T01:33:12.968Z,15.31
2022-08-22T01:33:22.889Z,15.30
2022-08-22T01:33:32.869Z,15.30
2022-08-22T01:33:42.867Z,15.31
2022-08-22T01:33:52.863Z,15.30
2022-08-22T01:34:02.854Z,15.28
2022-08-22T01:34:13.200Z,15.30
2022-08-22T01:34:22.936Z,15.30
2022-08-22T01:34:32.912Z,15.28
2022-08-22T01:34:42.939Z,15.28
2022-08-22T01:34:52.967Z,15.28
2022-08-22T01:35:02.962Z,15.28
2022-08-22T01:35:12.895Z,15.30
2022-08-22T01:35:22.913Z,15.30
2022-08-22T01:35:32.849Z,15.30
2022-08-22T01:35:42.923Z,15.28
2022-08-22T01:35:52.913Z,15.28
2022-08-22T01:36:02.898Z,15.28
2022-08-22T01:36:12.912Z,15.27
2022-08-22T01:36:22.921Z,15.28
2022-08-22T01:36:32.884Z,15.28
2022-08-22T01:36:42.849Z,15.28
2022-08-22T01:36:52.834Z,15.28
2022-08-22T01:37:02.949Z,15.27
2022-08-22T01:37:12.915Z,15.27
2022-08-22T01:37:22.834Z,15.23
2022-08-22T01:37:32.844Z,15.25
2022-08-22T01:37:43.432Z,15.25
2022-08-22T01:37:52.971Z,15.23
2022-08-22T01:38:02.851Z,15.25
2022-08-22T01:38:12.877Z,15.25
2022-08-22T01:38:22.940Z,15.23
2022-08-22T01:38:32.954Z,15.25
2022-08-22T01:38:42.855Z,15.23
2022-08-22T01:38:52.905Z,15.23
2022-08-22T01:39:02.892Z,15.23
2022-08-22T01:39:12.925Z,15.22
2022-08-22T01:39:22.929Z,15.23
2022-08-22T01:39:32.954Z,15.25
2022-08-22T01:39:42.933Z,15.22
2022-08-22T01:39:53.020Z,15.22
2022-08-22T01:40:03.038Z,15.22
2022-08-22T01:40:13.068Z,15.20
2022-08-22T01:40:22.906Z,15.22
2022-08-22T01:40:32.846Z,15.22
2022-08-22T01:40:53.293Z,15.22
2022-08-22T01:40:53.702Z,15.20
2022-08-22T01:41:02.839Z,15.20
2022-08-22T01:41:12.841Z,15.20
2022-08-22T01:41:22.944Z,15.22
2022-08-22T01:41:32.889Z,15.22
2022-08-22T01:41:42.881Z,15.20
2022-08-22T01:41:52.899Z,15.19
2022-08-22T01:42:02.857Z,15.19
2022-08-22T01:42:12.940Z,15.19
2022-08-22T01:42:22.837Z,15.19
2022-08-22T01:42:32.863Z,15.20
2022-08-22T01:42:42.892Z,15.16
2022-08-22T01:42:52.870Z,15.19
2022-08-22T01:43:02.900Z,15.19
2022-08-22T01:43:12.855Z,15.19
2022-08-22T01:43:22.883Z,15.19
2022-08-22T01:43:51.488Z,15.18
2022-08-22T01:43:55.499Z,15.18
2022-08-22T01:43:59.799Z,15.18
2022-08-22T01:44:02.939Z,15.18
2022-08-22T01:44:12.842Z,15.18
2022-08-22T01:44:22.835Z,15.18
2022-08-22T01:44:32.848Z,15.18
2022-08-22T01:44:42.872Z,15.18
2022-08-22T01:44:52.834Z,15.18
2022-08-22T01:45:02.952Z,15.18
2022-08-22T01:45:12.960Z,15.18
2022-08-22T01:45:22.911Z,15.18
2022-08-22T01:45:32.891Z,15.16
2022-08-22T01:45:42.924Z,15.18
2022-08-22T01:45:52.915Z,15.16
2022-08-22T01:46:02.964Z,15.16
2022-08-22T01:46:12.965Z,15.18
2022-08-22T01:46:22.892Z,15.15
2022-08-22T01:46:32.950Z,15.16
2022-08-22T01:46:42.908Z,15.16
2022-08-22T01:46:52.947Z,15.16
2022-08-22T01:47:02.875Z,15.15
2022-08-22T01:47:12.851Z,15.16
2022-08-22T01:47:22.943Z,15.16
2022-08-22T01:47:36.779Z,15.18
2022-08-22T01:47:42.846Z,15.16
2022-08-22T01:47:53.607Z,15.16
2022-08-22T01:48:02.926Z,15.16
2022-08-22T01:48:12.966Z,15.16
2022-08-22T01:48:22.965Z,15.16
2022-08-22T01:48:32.844Z,15.16
2022-08-22T01:48:42.962Z,15.16
2022-08-22T01:48:52.963Z,15.15
2022-08-22T01:49:02.961Z,15.16
2022-08-22T01:49:12.882Z,15.15
2022-08-22T01:49:22.954Z,15.15
2022-08-22T01:49:32.875Z,15.15
2022-08-22T01:49:42.888Z,15.15
2022-08-22T01:49:52.925Z,15.16
2022-08-22T01:50:02.922Z,15.15
2022-08-22T01:50:12.929Z,15.15
2022-08-22T01:50:22.945Z,15.15
2022-08-22T01:50:32.860Z,15.16
2022-08-22T01:50:42.853Z,15.15
2022-08-22T01:50:52.995Z,15.15
2022-08-22T01:51:02.855Z,15.15
2022-08-22T01:51:12.879Z,15.15
2022-08-22T01:51:22.905Z,15.15
2022-08-22T01:51:32.879Z,15.15
2022-08-22T01:51:42.926Z,15.15
2022-08-22T01:51:52.849Z,15.13
2022-08-22T01:52:02.870Z,15.13
2022-08-22T01:52:12.959Z,15.13
2022-08-22T01:52:22.888Z,15.15
2022-08-22T01:52:32.871Z,15.13
2022-08-22T01:52:42.909Z,15.13
2022-08-22T01:52:52.846Z,15.13
2022-08-22T01:53:02.943Z,15.13
2022-08-22T01:53:12.852Z,15.13
2022-08-22T01:53:22.899Z,15.13
2022-08-22T01:53:32.933Z,15.13
2022-08-22T01:53:42.945Z,15.12
2022-08-22T01:53:52.941Z,15.13
2022-08-22T01:54:02.833Z,15.12
2022-08-22T01:54:12.896Z,15.13
2022-08-22T01:54:22.931Z,15.13
2022-08-22T01:54:32.919Z,15.12
2022-08-22T01:54:42.836Z,15.12
2022-08-22T01:54:52.960Z,15.12
2022-08-22T01:55:02.867Z,15.12
2022-08-22T01:55:12.881Z,15.13
2022-08-22T01:55:22.887Z,15.12
2022-08-22T01:55:32.856Z,15.11
2022-08-22T01:55:42.850Z,15.12
2022-08-22T01:55:53.015Z,15.12
2022-08-22T01:56:02.838Z,15.12
2022-08-22T01:56:12.969Z,15.11
2022-08-22T01:56:22.969Z,15.11
2022-08-22T01:56:32.895Z,15.11
2022-08-22T01:56:42.955Z,15.09
2022-08-22T01:56:52.896Z,15.11
2022-08-22T01:57:02.968Z,15.09
2022-08-22T01:57:12.881Z,15.09
2022-08-22T01:57:22.914Z,15.09
2022-08-22T01:57:32.952Z,15.07
2022-08-22T01:57:42.966Z,15.07
2022-08-22T01:57:53.020Z,15.09
2022-08-22T01:58:02.874Z,15.07
2022-08-22T01:58:12.856Z,15.11
2022-08-22T01:58:22.880Z,15.07
2022-08-22T01:58:32.900Z,15.07
2022-08-22T01:58:42.880Z,15.09
2022-08-22T01:58:52.897Z,15.07
2022-08-22T01:59:02.944Z,15.07
2022-08-22T01:59:12.954Z,15.07
2022-08-22T01:59:22.840Z,15.07
2022-08-22T01:59:33.763Z,15.07
2022-08-22T01:59:43.031Z,15.04
2022-08-22T01:59:52.857Z,15.05
2022-08-22T02:00:02.889Z,15.05
2022-08-22T02:00:12.862Z,15.04
2022-08-22T02:00:34.613Z,15.04
2022-08-22T02:00:35.251Z,15.04
2022-08-22T02:00:42.957Z,15.04
2022-08-22T02:00:52.957Z,15.04
2022-08-22T02:01:02.880Z,15.03
2022-08-22T02:01:12.904Z,15.03
2022-08-22T02:01:22.899Z,15.03
2022-08-22T02:01:32.902Z,15.04
2022-08-22T02:01:42.888Z,15.04
2022-08-22T02:01:52.901Z,15.04
2022-08-22T02:02:02.905Z,15.03
2022-08-22T02:02:12.928Z,15.03
2022-08-22T02:02:22.933Z,15.03
2022-08-22T02:02:32.927Z,15.03